sensor_id;sensor_type;location;lat;lon;timestamp;P1;durP1;ratioP1;P2;durP2;ratioP2
68212;SDS011;55035;47.792;8.724;2023-12-28T00:00:09;40.33;;;32.50;;
68212;SDS011;55035;47.792;8.724;2023-12-28T00:02:36;38.75;;;29.90;;
68212;SDS011;55035;47.792;8.724;2023-12-28T00:05:03;41.60;;;32.07;;
68212;SDS011;55035;47.792;8.724;2023-12-28T00:07:31;40.67;;;31.45;;
68212;SDS011;55035;47.792;8.724;2023-12-28T00:09:58;39.70;;;31.20;;
68212;SDS011;55035;47.792;8.724;2023-12-28T00:12:25;39.57;;;29.87;;
68212;SDS011;55035;47.792;8.724;2023-12-28T00:14:51;39.53;;;30.65;;
68212;SDS011;55035;47.792;8.724;2023-12-28T00:17:18;54.13;;;36.97;;
68212;SDS011;55035;47.792;8.724;2023-12-28T00:19:45;39.63;;;30.88;;
68212;SDS011;55035;47.792;8.724;2023-12-28T00:22:12;39.40;;;30.53;;
68212;SDS011;55035;47.792;8.724;2023-12-28T00:24:40;38.40;;;30.30;;
68212;SDS011;55035;47.792;8.724;2023-12-28T00:27:07;40.70;;;30.57;;
68212;SDS011;55035;47.792;8.724;2023-12-28T00:29:33;42.38;;;32.47;;
68212;SDS011;55035;47.792;8.724;2023-12-28T00:32:04;42.37;;;31.13;;
68212;SDS011;55035;47.792;8.724;2023-12-28T00:34:31;40.03;;;30.23;;
68212;SDS011;55035;47.792;8.724;2023-12-28T00:36:58;39.80;;;29.67;;
68212;SDS011;55035;47.792;8.724;2023-12-28T00:39:24;46.37;;;32.73;;
68212;SDS011;55035;47.792;8.724;2023-12-28T00:41:52;40.13;;;30.83;;
68212;SDS011;55035;47.792;8.724;2023-12-28T00:44:19;38.80;;;29.02;;
68212;SDS011;55035;47.792;8.724;2023-12-28T00:46:46;37.47;;;29.55;;
68212;SDS011;55035;47.792;8.724;2023-12-28T00:49:12;48.97;;;34.45;;
68212;SDS011;55035;47.792;8.724;2023-12-28T00:51:39;36.63;;;28.27;;
68212;SDS011;55035;47.792;8.724;2023-12-28T00:54:05;57.60;;;38.05;;
68212;SDS011;55035;47.792;8.724;2023-12-28T00:56:32;42.25;;;30.90;;
68212;SDS011;55035;47.792;8.724;2023-12-28T00:59:00;33.85;;;26.83;;
68212;SDS011;55035;47.792;8.724;2023-12-28T01:01:28;40.57;;;30.60;;
68212;SDS011;55035;47.792;8.724;2023-12-28T01:03:55;40.72;;;30.70;;
68212;SDS011;55035;47.792;8.724;2023-12-28T01:06:22;38.60;;;30.87;;
68212;SDS011;55035;47.792;8.724;2023-12-28T01:08:53;38.70;;;30.23;;
68212;SDS011;55035;47.792;8.724;2023-12-28T01:11:19;34.67;;;26.67;;
68212;SDS011;55035;47.792;8.724;2023-12-28T01:13:46;33.83;;;26.08;;
68212;SDS011;55035;47.792;8.724;2023-12-28T01:16:14;35.60;;;27.87;;
68212;SDS011;55035;47.792;8.724;2023-12-28T01:18:41;36.55;;;28.13;;
68212;SDS011;55035;47.792;8.724;2023-12-28T01:21:09;40.15;;;30.10;;
68212;SDS011;55035;47.792;8.724;2023-12-28T01:23:35;39.72;;;30.52;;
68212;SDS011;55035;47.792;8.724;2023-12-28T01:26:02;43.83;;;30.67;;
68212;SDS011;55035;47.792;8.724;2023-12-28T01:28:28;41.13;;;29.58;;
68212;SDS011;55035;47.792;8.724;2023-12-28T01:30:55;34.50;;;27.15;;
68212;SDS011;55035;47.792;8.724;2023-12-28T01:33:23;35.17;;;26.93;;
68212;SDS011;55035;47.792;8.724;2023-12-28T01:35:50;35.05;;;27.40;;
68212;SDS011;55035;47.792;8.724;2023-12-28T01:38:16;34.27;;;28.20;;
68212;SDS011;55035;47.792;8.724;2023-12-28T01:40:44;33.88;;;28.02;;
68212;SDS011;55035;47.792;8.724;2023-12-28T01:43:10;35.35;;;28.45;;
68212;SDS011;55035;47.792;8.724;2023-12-28T01:45:37;34.22;;;27.98;;
68212;SDS011;55035;47.792;8.724;2023-12-28T01:48:04;31.95;;;27.08;;
68212;SDS011;55035;47.792;8.724;2023-12-28T01:50:32;32.17;;;24.20;;
68212;SDS011;55035;47.792;8.724;2023-12-28T01:52:59;34.22;;;27.20;;
68212;SDS011;55035;47.792;8.724;2023-12-28T01:55:27;34.50;;;26.20;;
68212;SDS011;55035;47.792;8.724;2023-12-28T01:57:54;33.58;;;26.55;;
68212;SDS011;55035;47.792;8.724;2023-12-28T02:00:21;31.17;;;26.00;;
68212;SDS011;55035;47.792;8.724;2023-12-28T02:02:49;30.13;;;24.90;;
68212;SDS011;55035;47.792;8.724;2023-12-28T02:05:16;32.10;;;26.85;;
68212;SDS011;55035;47.792;8.724;2023-12-28T02:07:45;34.45;;;26.77;;
68212;SDS011;55035;47.792;8.724;2023-12-28T02:10:12;33.45;;;26.40;;
68212;SDS011;55035;47.792;8.724;2023-12-28T02:12:39;36.65;;;27.25;;
68212;SDS011;55035;47.792;8.724;2023-12-28T02:15:06;36.58;;;28.83;;
68212;SDS011;55035;47.792;8.724;2023-12-28T02:17:33;35.33;;;27.20;;
68212;SDS011;55035;47.792;8.724;2023-12-28T02:20:00;34.38;;;27.17;;
68212;SDS011;55035;47.792;8.724;2023-12-28T02:22:31;33.87;;;25.50;;
68212;SDS011;55035;47.792;8.724;2023-12-28T02:25:04;32.92;;;25.58;;
68212;SDS011;55035;47.792;8.724;2023-12-28T02:27:30;33.38;;;26.52;;
68212;SDS011;55035;47.792;8.724;2023-12-28T02:29:57;32.60;;;26.03;;
68212;SDS011;55035;47.792;8.724;2023-12-28T02:32:27;30.27;;;23.98;;
68212;SDS011;55035;47.792;8.724;2023-12-28T02:34:56;27.83;;;22.23;;
68212;SDS011;55035;47.792;8.724;2023-12-28T02:37:23;30.77;;;24.53;;
68212;SDS011;55035;47.792;8.724;2023-12-28T02:39:51;31.27;;;23.87;;
68212;SDS011;55035;47.792;8.724;2023-12-28T02:42:19;32.13;;;24.38;;
68212;SDS011;55035;47.792;8.724;2023-12-28T02:44:45;32.37;;;24.33;;
68212;SDS011;55035;47.792;8.724;2023-12-28T02:47:12;29.75;;;23.48;;
68212;SDS011;55035;47.792;8.724;2023-12-28T02:49:39;30.10;;;23.70;;
68212;SDS011;55035;47.792;8.724;2023-12-28T02:52:06;31.10;;;24.42;;
68212;SDS011;55035;47.792;8.724;2023-12-28T02:54:32;28.05;;;22.75;;
68212;SDS011;55035;47.792;8.724;2023-12-28T02:56:59;29.45;;;23.90;;
68212;SDS011;55035;47.792;8.724;2023-12-28T02:59:26;26.05;;;21.77;;
68212;SDS011;55035;47.792;8.724;2023-12-28T03:01:52;30.02;;;23.27;;
68212;SDS011;55035;47.792;8.724;2023-12-28T03:04:19;26.52;;;21.88;;
68212;SDS011;55035;47.792;8.724;2023-12-28T03:06:46;26.30;;;22.05;;
68212;SDS011;55035;47.792;8.724;2023-12-28T03:09:13;27.23;;;21.03;;
68212;SDS011;55035;47.792;8.724;2023-12-28T03:11:39;27.90;;;21.17;;
68212;SDS011;55035;47.792;8.724;2023-12-28T03:14:06;27.60;;;21.58;;
68212;SDS011;55035;47.792;8.724;2023-12-28T03:16:34;27.07;;;21.40;;
68212;SDS011;55035;47.792;8.724;2023-12-28T03:19:00;26.73;;;22.67;;
68212;SDS011;55035;47.792;8.724;2023-12-28T03:21:27;30.03;;;22.70;;
68212;SDS011;55035;47.792;8.724;2023-12-28T03:23:54;27.45;;;21.58;;
68212;SDS011;55035;47.792;8.724;2023-12-28T03:26:21;27.55;;;22.35;;
68212;SDS011;55035;47.792;8.724;2023-12-28T03:28:47;26.60;;;22.30;;
68212;SDS011;55035;47.792;8.724;2023-12-28T03:31:14;29.63;;;23.30;;
68212;SDS011;55035;47.792;8.724;2023-12-28T03:33:42;27.00;;;21.70;;
68212;SDS011;55035;47.792;8.724;2023-12-28T03:36:17;26.05;;;21.58;;
68212;SDS011;55035;47.792;8.724;2023-12-28T03:38:44;24.75;;;21.02;;
68212;SDS011;55035;47.792;8.724;2023-12-28T03:41:15;28.13;;;22.35;;
68212;SDS011;55035;47.792;8.724;2023-12-28T03:43:42;26.55;;;21.75;;
68212;SDS011;55035;47.792;8.724;2023-12-28T03:46:09;25.95;;;21.58;;
68212;SDS011;55035;47.792;8.724;2023-12-28T03:48:36;26.40;;;21.98;;
68212;SDS011;55035;47.792;8.724;2023-12-28T03:51:04;25.87;;;21.13;;
68212;SDS011;55035;47.792;8.724;2023-12-28T03:53:31;26.63;;;21.30;;
68212;SDS011;55035;47.792;8.724;2023-12-28T03:55:58;25.87;;;21.40;;
68212;SDS011;55035;47.792;8.724;2023-12-28T03:58:25;26.25;;;21.25;;
68212;SDS011;55035;47.792;8.724;2023-12-28T04:00:52;26.40;;;21.58;;
68212;SDS011;55035;47.792;8.724;2023-12-28T04:03:18;26.75;;;20.92;;
68212;SDS011;55035;47.792;8.724;2023-12-28T04:05:46;26.30;;;21.13;;
68212;SDS011;55035;47.792;8.724;2023-12-28T04:08:14;25.40;;;20.47;;
68212;SDS011;55035;47.792;8.724;2023-12-28T04:10:41;26.65;;;20.20;;
68212;SDS011;55035;47.792;8.724;2023-12-28T04:13:07;32.38;;;24.05;;
68212;SDS011;55035;47.792;8.724;2023-12-28T04:15:34;31.10;;;24.15;;
68212;SDS011;55035;47.792;8.724;2023-12-28T04:18:01;27.08;;;22.02;;
68212;SDS011;55035;47.792;8.724;2023-12-28T04:20:28;26.13;;;21.27;;
68212;SDS011;55035;47.792;8.724;2023-12-28T04:22:55;26.13;;;20.73;;
68212;SDS011;55035;47.792;8.724;2023-12-28T04:25:23;30.00;;;23.80;;
68212;SDS011;55035;47.792;8.724;2023-12-28T04:27:50;24.98;;;21.13;;
68212;SDS011;55035;47.792;8.724;2023-12-28T04:30:17;30.03;;;24.10;;
68212;SDS011;55035;47.792;8.724;2023-12-28T04:32:43;28.48;;;22.35;;
68212;SDS011;55035;47.792;8.724;2023-12-28T04:35:10;33.67;;;27.13;;
68212;SDS011;55035;47.792;8.724;2023-12-28T04:37:37;25.58;;;21.65;;
68212;SDS011;55035;47.792;8.724;2023-12-28T04:40:04;24.50;;;20.90;;
68212;SDS011;55035;47.792;8.724;2023-12-28T04:42:32;24.90;;;21.45;;
68212;SDS011;55035;47.792;8.724;2023-12-28T04:44:59;26.58;;;22.40;;
68212;SDS011;55035;47.792;8.724;2023-12-28T04:47:26;28.70;;;23.48;;
68212;SDS011;55035;47.792;8.724;2023-12-28T04:49:52;50.87;;;32.77;;
68212;SDS011;55035;47.792;8.724;2023-12-28T04:52:19;75.45;;;40.67;;
68212;SDS011;55035;47.792;8.724;2023-12-28T04:54:45;36.58;;;28.15;;
68212;SDS011;55035;47.792;8.724;2023-12-28T04:57:12;29.00;;;25.90;;
68212;SDS011;55035;47.792;8.724;2023-12-28T04:59:40;27.93;;;24.93;;
68212;SDS011;55035;47.792;8.724;2023-12-28T05:02:07;28.70;;;25.80;;
68212;SDS011;55035;47.792;8.724;2023-12-28T05:04:36;28.85;;;25.95;;
68212;SDS011;55035;47.792;8.724;2023-12-28T05:07:03;28.42;;;25.60;;
68212;SDS011;55035;47.792;8.724;2023-12-28T05:09:30;26.77;;;24.07;;
68212;SDS011;55035;47.792;8.724;2023-12-28T05:11:56;28.50;;;25.80;;
68212;SDS011;55035;47.792;8.724;2023-12-28T05:14:24;28.80;;;25.90;;
68212;SDS011;55035;47.792;8.724;2023-12-28T05:16:52;29.03;;;26.10;;
68212;SDS011;55035;47.792;8.724;2023-12-28T05:19:19;28.50;;;25.42;;
68212;SDS011;55035;47.792;8.724;2023-12-28T05:21:45;27.92;;;25.17;;
68212;SDS011;55035;47.792;8.724;2023-12-28T05:24:12;28.42;;;25.63;;
68212;SDS011;55035;47.792;8.724;2023-12-28T05:26:40;27.52;;;24.80;;
68212;SDS011;55035;47.792;8.724;2023-12-28T05:29:06;26.00;;;23.33;;
68212;SDS011;55035;47.792;8.724;2023-12-28T05:31:33;26.60;;;24.10;;
68212;SDS011;55035;47.792;8.724;2023-12-28T05:34:01;26.70;;;24.05;;
68212;SDS011;55035;47.792;8.724;2023-12-28T05:36:27;26.73;;;24.13;;
68212;SDS011;55035;47.792;8.724;2023-12-28T05:38:54;25.77;;;23.25;;
68212;SDS011;55035;47.792;8.724;2023-12-28T05:41:21;27.42;;;24.83;;
68212;SDS011;55035;47.792;8.724;2023-12-28T05:43:47;26.00;;;23.57;;
68212;SDS011;55035;47.792;8.724;2023-12-28T05:46:14;27.40;;;24.80;;
68212;SDS011;55035;47.792;8.724;2023-12-28T05:48:41;26.92;;;24.42;;
68212;SDS011;55035;47.792;8.724;2023-12-28T05:51:09;24.38;;;22.08;;
68212;SDS011;55035;47.792;8.724;2023-12-28T05:53:36;27.35;;;24.85;;
68212;SDS011;55035;47.792;8.724;2023-12-28T05:56:04;27.88;;;25.27;;
68212;SDS011;55035;47.792;8.724;2023-12-28T05:58:31;24.98;;;22.65;;
68212;SDS011;55035;47.792;8.724;2023-12-28T06:00:57;25.45;;;23.00;;
68212;SDS011;55035;47.792;8.724;2023-12-28T06:03:24;27.08;;;24.48;;
68212;SDS011;55035;47.792;8.724;2023-12-28T06:05:53;25.90;;;23.50;;
68212;SDS011;55035;47.792;8.724;2023-12-28T06:08:21;26.70;;;24.10;;
68212;SDS011;55035;47.792;8.724;2023-12-28T06:10:48;25.98;;;23.58;;
68212;SDS011;55035;47.792;8.724;2023-12-28T06:13:15;26.98;;;24.38;;
68212;SDS011;55035;47.792;8.724;2023-12-28T06:15:41;26.83;;;24.23;;
68212;SDS011;55035;47.792;8.724;2023-12-28T06:18:08;27.47;;;24.87;;
68212;SDS011;55035;47.792;8.724;2023-12-28T06:20:35;27.23;;;24.58;;
68212;SDS011;55035;47.792;8.724;2023-12-28T06:23:02;28.35;;;25.73;;
68212;SDS011;55035;47.792;8.724;2023-12-28T06:25:30;26.87;;;24.27;;
68212;SDS011;55035;47.792;8.724;2023-12-28T06:27:57;26.95;;;24.35;;
68212;SDS011;55035;47.792;8.724;2023-12-28T06:30:23;24.98;;;22.48;;
68212;SDS011;55035;47.792;8.724;2023-12-28T06:32:50;25.95;;;23.45;;
68212;SDS011;55035;47.792;8.724;2023-12-28T06:35:16;26.65;;;24.05;;
68212;SDS011;55035;47.792;8.724;2023-12-28T06:37:43;24.50;;;22.10;;
68212;SDS011;55035;47.792;8.724;2023-12-28T06:40:10;27.33;;;24.90;;
68212;SDS011;55035;47.792;8.724;2023-12-28T06:42:38;26.42;;;23.92;;
68212;SDS011;55035;47.792;8.724;2023-12-28T06:45:06;26.70;;;24.23;;
68212;SDS011;55035;47.792;8.724;2023-12-28T06:47:33;27.30;;;24.70;;
68212;SDS011;55035;47.792;8.724;2023-12-28T06:49:59;28.37;;;25.70;;
68212;SDS011;55035;47.792;8.724;2023-12-28T06:52:26;27.05;;;24.35;;
68212;SDS011;55035;47.792;8.724;2023-12-28T06:54:53;30.83;;;27.73;;
68212;SDS011;55035;47.792;8.724;2023-12-28T06:57:19;28.13;;;25.33;;
68212;SDS011;55035;47.792;8.724;2023-12-28T06:59:47;28.75;;;25.95;;
68212;SDS011;55035;47.792;8.724;2023-12-28T07:02:14;28.60;;;25.80;;
68212;SDS011;55035;47.792;8.724;2023-12-28T07:04:40;28.85;;;25.98;;
68212;SDS011;55035;47.792;8.724;2023-12-28T07:07:07;28.55;;;25.63;;
68212;SDS011;55035;47.792;8.724;2023-12-28T07:09:34;28.38;;;25.63;;
68212;SDS011;55035;47.792;8.724;2023-12-28T07:12:01;30.23;;;27.33;;
68212;SDS011;55035;47.792;8.724;2023-12-28T07:14:27;28.35;;;25.55;;
68212;SDS011;55035;47.792;8.724;2023-12-28T07:16:55;28.90;;;25.90;;
68212;SDS011;55035;47.792;8.724;2023-12-28T07:19:22;31.67;;;28.58;;
68212;SDS011;55035;47.792;8.724;2023-12-28T07:21:48;31.50;;;28.40;;
68212;SDS011;55035;47.792;8.724;2023-12-28T07:24:15;30.08;;;26.98;;
68212;SDS011;55035;47.792;8.724;2023-12-28T07:26:41;27.15;;;24.27;;
68212;SDS011;55035;47.792;8.724;2023-12-28T07:29:09;27.92;;;24.92;;
68212;SDS011;55035;47.792;8.724;2023-12-28T07:31:36;27.95;;;25.02;;
68212;SDS011;55035;47.792;8.724;2023-12-28T07:34:03;28.10;;;25.10;;
68212;SDS011;55035;47.792;8.724;2023-12-28T07:36:31;27.05;;;24.13;;
68212;SDS011;55035;47.792;8.724;2023-12-28T07:38:57;29.20;;;26.23;;
68212;SDS011;55035;47.792;8.724;2023-12-28T07:41:24;28.60;;;25.50;;
68212;SDS011;55035;47.792;8.724;2023-12-28T07:43:51;27.70;;;24.80;;
68212;SDS011;55035;47.792;8.724;2023-12-28T07:46:17;28.85;;;25.88;;
68212;SDS011;55035;47.792;8.724;2023-12-28T07:48:44;28.00;;;25.17;;
68212;SDS011;55035;47.792;8.724;2023-12-28T07:51:13;30.57;;;27.27;;
68212;SDS011;55035;47.792;8.724;2023-12-28T07:53:40;29.65;;;26.45;;
68212;SDS011;55035;47.792;8.724;2023-12-28T07:56:07;29.53;;;26.67;;
68212;SDS011;55035;47.792;8.724;2023-12-28T07:58:34;29.20;;;26.20;;
68212;SDS011;55035;47.792;8.724;2023-12-28T08:01:02;28.55;;;25.55;;
68212;SDS011;55035;47.792;8.724;2023-12-28T08:03:29;28.70;;;25.90;;
68212;SDS011;55035;47.792;8.724;2023-12-28T08:05:56;28.92;;;26.02;;
68212;SDS011;55035;47.792;8.724;2023-12-28T08:08:24;31.03;;;28.03;;
68212;SDS011;55035;47.792;8.724;2023-12-28T08:10:51;26.73;;;23.95;;
68212;SDS011;55035;47.792;8.724;2023-12-28T08:13:17;28.13;;;25.35;;
68212;SDS011;55035;47.792;8.724;2023-12-28T08:15:44;26.70;;;23.95;;
68212;SDS011;55035;47.792;8.724;2023-12-28T08:18:12;27.88;;;24.92;;
68212;SDS011;55035;47.792;8.724;2023-12-28T08:20:38;29.35;;;24.83;;
68212;SDS011;55035;47.792;8.724;2023-12-28T08:23:05;28.75;;;25.75;;
68212;SDS011;55035;47.792;8.724;2023-12-28T08:25:33;27.35;;;24.52;;
68212;SDS011;55035;47.792;8.724;2023-12-28T08:28:00;28.27;;;25.48;;
68212;SDS011;55035;47.792;8.724;2023-12-28T08:30:27;31.93;;;28.63;;
68212;SDS011;55035;47.792;8.724;2023-12-28T08:32:54;28.98;;;25.98;;
68212;SDS011;55035;47.792;8.724;2023-12-28T08:35:20;29.65;;;26.58;;
68212;SDS011;55035;47.792;8.724;2023-12-28T08:37:47;28.50;;;25.60;;
68212;SDS011;55035;47.792;8.724;2023-12-28T08:40:14;29.30;;;26.40;;
68212;SDS011;55035;47.792;8.724;2023-12-28T08:42:42;28.48;;;25.58;;
68212;SDS011;55035;47.792;8.724;2023-12-28T08:45:10;28.17;;;25.37;;
68212;SDS011;55035;47.792;8.724;2023-12-28T08:47:37;29.52;;;26.70;;
68212;SDS011;55035;47.792;8.724;2023-12-28T08:50:04;28.52;;;25.65;;
68212;SDS011;55035;47.792;8.724;2023-12-28T08:52:31;26.27;;;23.77;;
68212;SDS011;55035;47.792;8.724;2023-12-28T08:54:57;26.97;;;24.23;;
68212;SDS011;55035;47.792;8.724;2023-12-28T08:57:25;27.90;;;25.20;;
68212;SDS011;55035;47.792;8.724;2023-12-28T08:59:53;26.92;;;24.20;;
68212;SDS011;55035;47.792;8.724;2023-12-28T09:02:20;27.80;;;25.00;;
68212;SDS011;55035;47.792;8.724;2023-12-28T09:04:45;36.50;;;30.02;;
68212;SDS011;55035;47.792;8.724;2023-12-28T09:07:12;46.05;;;33.88;;
68212;SDS011;55035;47.792;8.724;2023-12-28T09:09:39;31.85;;;28.58;;
68212;SDS011;55035;47.792;8.724;2023-12-28T09:12:06;32.85;;;29.33;;
68212;SDS011;55035;47.792;8.724;2023-12-28T09:14:33;37.00;;;33.05;;
68212;SDS011;55035;47.792;8.724;2023-12-28T09:17:01;37.38;;;33.40;;
68212;SDS011;55035;47.792;8.724;2023-12-28T09:19:27;38.10;;;33.97;;
68212;SDS011;55035;47.792;8.724;2023-12-28T09:21:54;38.05;;;33.75;;
68212;SDS011;55035;47.792;8.724;2023-12-28T09:24:21;46.63;;;39.05;;
68212;SDS011;55035;47.792;8.724;2023-12-28T09:26:47;34.85;;;31.45;;
68212;SDS011;55035;47.792;8.724;2023-12-28T09:29:14;37.17;;;33.17;;
68212;SDS011;55035;47.792;8.724;2023-12-28T09:31:42;36.80;;;32.90;;
68212;SDS011;55035;47.792;8.724;2023-12-28T09:34:10;30.00;;;26.92;;
68212;SDS011;55035;47.792;8.724;2023-12-28T09:36:36;24.47;;;22.10;;
68212;SDS011;55035;47.792;8.724;2023-12-28T09:39:03;27.80;;;25.20;;
68212;SDS011;55035;47.792;8.724;2023-12-28T09:41:33;24.98;;;22.58;;
68212;SDS011;55035;47.792;8.724;2023-12-28T09:44:04;24.08;;;21.77;;
68212;SDS011;55035;47.792;8.724;2023-12-28T09:46:33;24.88;;;22.35;;
68212;SDS011;55035;47.792;8.724;2023-12-28T09:49:00;24.75;;;22.45;;
68212;SDS011;55035;47.792;8.724;2023-12-28T09:51:29;24.20;;;21.80;;
68212;SDS011;55035;47.792;8.724;2023-12-28T09:53:56;25.65;;;23.23;;
68212;SDS011;55035;47.792;8.724;2023-12-28T09:56:22;151.82;;;86.20;;
68212;SDS011;55035;47.792;8.724;2023-12-28T09:58:49;120.27;;;75.37;;
68212;SDS011;55035;47.792;8.724;2023-12-28T10:01:17;134.35;;;82.90;;
68212;SDS011;55035;47.792;8.724;2023-12-28T10:03:44;53.25;;;42.00;;
68212;SDS011;55035;47.792;8.724;2023-12-28T10:06:11;40.83;;;36.53;;
68212;SDS011;55035;47.792;8.724;2023-12-28T10:08:45;38.77;;;34.87;;
68212;SDS011;55035;47.792;8.724;2023-12-28T10:11:13;46.38;;;41.42;;
68212;SDS011;55035;47.792;8.724;2023-12-28T10:13:41;43.63;;;39.13;;
68212;SDS011;55035;47.792;8.724;2023-12-28T10:16:09;40.08;;;35.83;;
68212;SDS011;55035;47.792;8.724;2023-12-28T10:18:35;39.38;;;35.50;;
68212;SDS011;55035;47.792;8.724;2023-12-28T10:21:02;37.65;;;33.83;;
68212;SDS011;55035;47.792;8.724;2023-12-28T10:23:29;40.13;;;35.25;;
68212;SDS011;55035;47.792;8.724;2023-12-28T10:25:57;48.55;;;43.25;;
68212;SDS011;55035;47.792;8.724;2023-12-28T10:28:25;66.07;;;52.25;;
68212;SDS011;55035;47.792;8.724;2023-12-28T10:30:54;37.75;;;33.80;;
68212;SDS011;55035;47.792;8.724;2023-12-28T10:33:20;40.80;;;36.38;;
68212;SDS011;55035;47.792;8.724;2023-12-28T10:35:47;40.45;;;36.17;;
68212;SDS011;55035;47.792;8.724;2023-12-28T10:38:15;33.38;;;29.83;;
68212;SDS011;55035;47.792;8.724;2023-12-28T10:40:42;48.30;;;41.35;;
68212;SDS011;55035;47.792;8.724;2023-12-28T10:43:11;53.22;;;45.45;;
68212;SDS011;55035;47.792;8.724;2023-12-28T10:45:40;49.10;;;42.42;;
68212;SDS011;55035;47.792;8.724;2023-12-28T10:48:09;39.72;;;34.50;;
68212;SDS011;55035;47.792;8.724;2023-12-28T10:50:38;35.67;;;31.98;;
68212;SDS011;55035;47.792;8.724;2023-12-28T10:53:07;31.87;;;28.73;;
68212;SDS011;55035;47.792;8.724;2023-12-28T10:55:39;29.58;;;26.77;;
68212;SDS011;55035;47.792;8.724;2023-12-28T10:58:09;30.85;;;27.65;;
68212;SDS011;55035;47.792;8.724;2023-12-28T11:00:39;34.97;;;31.17;;
68212;SDS011;55035;47.792;8.724;2023-12-28T11:03:13;31.08;;;27.88;;
68212;SDS011;55035;47.792;8.724;2023-12-28T11:05:42;31.02;;;27.92;;
68212;SDS011;55035;47.792;8.724;2023-12-28T11:08:09;31.83;;;28.48;;
68212;SDS011;55035;47.792;8.724;2023-12-28T11:10:37;29.80;;;26.80;;
68212;SDS011;55035;47.792;8.724;2023-12-28T11:13:04;28.70;;;25.90;;
68212;SDS011;55035;47.792;8.724;2023-12-28T11:15:31;38.30;;;34.15;;
68212;SDS011;55035;47.792;8.724;2023-12-28T11:18:01;34.00;;;30.48;;
68212;SDS011;55035;47.792;8.724;2023-12-28T11:20:28;33.75;;;30.38;;
68212;SDS011;55035;47.792;8.724;2023-12-28T11:22:56;29.95;;;26.95;;
68212;SDS011;55035;47.792;8.724;2023-12-28T11:25:23;30.75;;;27.63;;
68212;SDS011;55035;47.792;8.724;2023-12-28T11:27:50;30.90;;;27.70;;
68212;SDS011;55035;47.792;8.724;2023-12-28T11:30:17;31.02;;;27.85;;
68212;SDS011;55035;47.792;8.724;2023-12-28T11:32:43;32.80;;;29.40;;
68212;SDS011;55035;47.792;8.724;2023-12-28T11:35:12;30.00;;;26.80;;
68212;SDS011;55035;47.792;8.724;2023-12-28T11:37:40;37.42;;;32.83;;
68212;SDS011;55035;47.792;8.724;2023-12-28T11:40:11;37.03;;;33.03;;
68212;SDS011;55035;47.792;8.724;2023-12-28T11:42:46;35.40;;;31.80;;
68212;SDS011;55035;47.792;8.724;2023-12-28T11:45:17;36.07;;;32.40;;
68212;SDS011;55035;47.792;8.724;2023-12-28T11:47:44;37.10;;;33.17;;
68212;SDS011;55035;47.792;8.724;2023-12-28T11:50:13;36.05;;;32.25;;
68212;SDS011;55035;47.792;8.724;2023-12-28T11:52:40;39.20;;;34.53;;
68212;SDS011;55035;47.792;8.724;2023-12-28T11:55:06;46.13;;;38.80;;
68212;SDS011;55035;47.792;8.724;2023-12-28T11:57:33;40.53;;;36.22;;
68212;SDS011;55035;47.792;8.724;2023-12-28T12:00:00;31.92;;;28.73;;
68212;SDS011;55035;47.792;8.724;2023-12-28T12:02:30;29.03;;;26.13;;
68212;SDS011;55035;47.792;8.724;2023-12-28T12:04:57;28.20;;;25.48;;
68212;SDS011;55035;47.792;8.724;2023-12-28T12:07:27;28.20;;;25.17;;
68212;SDS011;55035;47.792;8.724;2023-12-28T12:09:57;30.33;;;27.38;;
68212;SDS011;55035;47.792;8.724;2023-12-28T12:12:30;29.77;;;26.77;;
68212;SDS011;55035;47.792;8.724;2023-12-28T12:14:56;28.77;;;25.95;;
68212;SDS011;55035;47.792;8.724;2023-12-28T12:17:23;27.43;;;24.73;;
68212;SDS011;55035;47.792;8.724;2023-12-28T12:19:50;27.13;;;24.33;;
68212;SDS011;55035;47.792;8.724;2023-12-28T12:22:20;28.05;;;25.15;;
68212;SDS011;55035;47.792;8.724;2023-12-28T12:24:48;27.70;;;24.93;;
68212;SDS011;55035;47.792;8.724;2023-12-28T12:27:15;28.10;;;25.30;;
68212;SDS011;55035;47.792;8.724;2023-12-28T12:29:42;28.95;;;26.05;;
68212;SDS011;55035;47.792;8.724;2023-12-28T12:32:09;30.13;;;27.07;;
68212;SDS011;55035;47.792;8.724;2023-12-28T12:34:36;27.00;;;24.17;;
68212;SDS011;55035;47.792;8.724;2023-12-28T12:37:04;30.00;;;27.10;;
68212;SDS011;55035;47.792;8.724;2023-12-28T12:39:30;27.75;;;25.00;;
68212;SDS011;55035;47.792;8.724;2023-12-28T12:41:59;28.63;;;25.58;;
68212;SDS011;55035;47.792;8.724;2023-12-28T12:44:25;31.75;;;28.45;;
68212;SDS011;55035;47.792;8.724;2023-12-28T12:46:59;31.57;;;28.37;;
68212;SDS011;55035;47.792;8.724;2023-12-28T12:49:26;29.00;;;26.27;;
68212;SDS011;55035;47.792;8.724;2023-12-28T12:51:53;28.98;;;26.27;;
68212;SDS011;55035;47.792;8.724;2023-12-28T12:54:19;27.10;;;24.43;;
68212;SDS011;55035;47.792;8.724;2023-12-28T12:56:46;26.67;;;24.10;;
68212;SDS011;55035;47.792;8.724;2023-12-28T12:59:15;28.65;;;25.90;;
68212;SDS011;55035;47.792;8.724;2023-12-28T13:01:43;26.13;;;23.38;;
68212;SDS011;55035;47.792;8.724;2023-12-28T13:04:09;27.00;;;24.23;;
68212;SDS011;55035;47.792;8.724;2023-12-28T13:06:36;28.63;;;25.73;;
68212;SDS011;55035;47.792;8.724;2023-12-28T13:09:03;26.85;;;24.23;;
68212;SDS011;55035;47.792;8.724;2023-12-28T13:11:32;27.13;;;24.30;;
68212;SDS011;55035;47.792;8.724;2023-12-28T13:13:59;26.10;;;23.50;;
68212;SDS011;55035;47.792;8.724;2023-12-28T13:16:27;29.02;;;26.23;;
68212;SDS011;55035;47.792;8.724;2023-12-28T13:18:53;27.05;;;24.33;;
68212;SDS011;55035;47.792;8.724;2023-12-28T13:21:20;26.40;;;23.73;;
68212;SDS011;55035;47.792;8.724;2023-12-28T13:23:47;26.83;;;24.05;;
68212;SDS011;55035;47.792;8.724;2023-12-28T13:26:14;26.52;;;24.02;;
68212;SDS011;55035;47.792;8.724;2023-12-28T13:28:40;26.45;;;23.95;;
68212;SDS011;55035;47.792;8.724;2023-12-28T13:31:07;25.50;;;22.90;;
68212;SDS011;55035;47.792;8.724;2023-12-28T13:33:35;24.50;;;22.13;;
68212;SDS011;55035;47.792;8.724;2023-12-28T13:36:02;23.15;;;20.90;;
68212;SDS011;55035;47.792;8.724;2023-12-28T13:38:30;23.80;;;21.33;;
68212;SDS011;55035;47.792;8.724;2023-12-28T13:40:56;24.70;;;22.30;;
68212;SDS011;55035;47.792;8.724;2023-12-28T13:43:23;24.30;;;21.85;;
68212;SDS011;55035;47.792;8.724;2023-12-28T13:45:50;24.35;;;21.85;;
68212;SDS011;55035;47.792;8.724;2023-12-28T13:48:16;24.90;;;22.40;;
68212;SDS011;55035;47.792;8.724;2023-12-28T13:50:44;24.13;;;21.83;;
68212;SDS011;55035;47.792;8.724;2023-12-28T13:53:11;24.83;;;22.20;;
68212;SDS011;55035;47.792;8.724;2023-12-28T13:55:37;23.77;;;21.33;;
68212;SDS011;55035;47.792;8.724;2023-12-28T13:58:05;24.50;;;22.00;;
68212;SDS011;55035;47.792;8.724;2023-12-28T14:00:31;23.42;;;21.05;;
68212;SDS011;55035;47.792;8.724;2023-12-28T14:02:58;24.52;;;21.92;;
68212;SDS011;55035;47.792;8.724;2023-12-28T14:05:25;23.43;;;21.03;;
68212;SDS011;55035;47.792;8.724;2023-12-28T14:07:53;23.60;;;21.30;;
68212;SDS011;55035;47.792;8.724;2023-12-28T14:10:20;23.52;;;21.23;;
68212;SDS011;55035;47.792;8.724;2023-12-28T14:12:46;24.98;;;22.42;;
68212;SDS011;55035;47.792;8.724;2023-12-28T14:15:13;24.85;;;22.35;;
68212;SDS011;55035;47.792;8.724;2023-12-28T14:17:41;23.50;;;21.10;;
68212;SDS011;55035;47.792;8.724;2023-12-28T14:20:08;22.70;;;20.42;;